ESNX

Arvidsjaur Airport

Arvidsjaur, Sweden
METAR ESNX 211520Z AUTO VRB02KT 9999 DZ FEW006/// SCT015/// BKN024/// 04/02 Q0999
Observed Flight Rules
Apr-21 @ 15:20 UTC (21 minutes ago) Marginal Visual Flight Rules
Wind Visibility Clouds Conditions
Variable at 2 knots 10,000+ meters
  • Few at 600' AGL
  • Scattered at 1,500' AGL
  • Broken at 2,400' AGL
  • Drizzle
Temperatures Readings
Current 4°C / 39°F
Dewpoint 2°C / 36°F
Humidity 87%
Altimeter 29.5" Hg
Pressure 999 hPa
Elevation 379
METAR ESNX 211520Z AUTO VRB02KT 9999 DZ FEW006/// SCT015/// BKN024/// 04/02 Q0999
Observed Flight Rules
Apr-21 @ 15:20 UTC
(21 minutes ago)
MVFR
Wind Visibility
Variable at 2 knots 10,000+ meters
Clouds
  • Few at 600' AGL
  • Scattered at 1,500' AGL
  • Broken at 2,400' AGL
Conditions
  • Drizzle
Temperature Dewpoint
4°C / 39°F 2°C / 36°F
Humidity Altimeter Pressure
87% 29.5" Hg 999 hPa